Time;durP1;ratioP1;P1;durP2;ratioP2;P2;SDS_P1;SDS_P2;PMS_P1;PMS_P2;Temp;Humidity;BMP_temperature;BMP_pressure;BME280_temperature;BME280_humidity;BME280_pressure;Samples;Min_cycle;Max_cycle;Signal;HPM_P1;HPM_P2
2023/12/21 00:01:55;;;;;;;23.20;7.10;;;;;;;;;;5031230;28;20049;-66
2023/12/21 00:04:21;;;;;;;20.33;7.43;;;;;;;;;;5030701;28;20511;-66
2023/12/21 00:06:47;;;;;;;23.33;7.67;;;;;;;;;;5030808;28;20042;-66
2023/12/21 00:09:13;;;;;;;29.50;9.33;;;;;;;;;;5030092;28;20557;-66
2023/12/21 00:11:39;;;;;;;22.93;6.83;;;;;;;;;;5030126;28;20049;-66
2023/12/21 00:14:05;;;;;;;24.40;7.10;;;;;;;;;;5031225;28;20420;-66
2023/12/21 00:16:31;;;;;;;32.97;7.43;;;;;;;;;;5030500;28;20083;-66
2023/12/21 00:18:57;;;;;;;23.83;7.53;;;;;;;;;;5030233;28;20037;-66
2023/12/21 00:21:23;;;;;;;38.80;8.67;;;;;;;;;;5030631;28;20034;-66
2023/12/21 00:23:49;;;;;;;32.00;9.40;;;;;;;;;;5030556;28;20041;-66
2023/12/21 00:26:15;;;;;;;30.53;9.10;;;;;;;;;;5029862;28;20047;-66
2023/12/21 00:28:41;;;;;;;30.33;7.07;;;;;;;;;;5030370;28;20049;-66
2023/12/21 00:31:07;;;;;;;30.13;8.33;;;;;;;;;;5030040;28;20041;-66
2023/12/21 00:33:33;;;;;;;27.40;8.53;;;;;;;;;;5030046;28;21216;-66
2023/12/21 00:35:59;;;;;;;36.40;9.27;;;;;;;;;;5030888;28;20095;-66
2023/12/21 00:38:26;;;;;;;32.90;9.17;;;;;;;;;;5029254;28;20777;-66
2023/12/21 00:40:52;;;;;;;34.90;9.50;;;;;;;;;;5028641;28;20507;-66
2023/12/21 00:43:19;;;;;;;29.77;7.90;;;;;;;;;;5028881;28;20059;-66
2023/12/21 00:45:45;;;;;;;29.50;8.20;;;;;;;;;;5027395;28;20420;-66
2023/12/21 00:48:11;;;;;;;32.70;8.07;;;;;;;;;;5028715;28;20164;-66
2023/12/21 00:50:37;;;;;;;29.07;8.03;;;;;;;;;;5028679;28;20053;-66
2023/12/21 00:53:04;;;;;;;25.57;7.40;;;;;;;;;;5028805;28;20554;-66
2023/12/21 00:55:30;;;;;;;28.27;7.90;;;;;;;;;;5029103;28;20484;-66
2023/12/21 00:57:56;;;;;;;41.53;8.87;;;;;;;;;;5029232;28;20046;-66
2023/12/21 01:00:22;;;;;;;32.97;8.07;;;;;;;;;;5028886;28;20049;-66
2023/12/21 01:02:48;;;;;;;31.63;7.70;;;;;;;;;;5030204;28;20041;-66
2023/12/21 01:05:14;;;;;;;20.33;6.90;;;;;;;;;;5029397;28;20041;-66
2023/12/21 01:07:41;;;;;;;21.57;6.27;;;;;;;;;;5028350;28;20115;-66
2023/12/21 01:10:08;;;;;;;26.87;6.27;;;;;;;;;;5028734;28;20519;-66
2023/12/21 01:12:34;;;;;;;28.37;6.33;;;;;;;;;;5029682;28;20679;-66
2023/12/21 01:15:00;;;;;;;23.97;6.00;;;;;;;;;;5030150;28;20050;-66
2023/12/21 01:17:26;;;;;;;36.67;7.60;;;;;;;;;;5029057;28;20111;-66
2023/12/21 01:19:53;;;;;;;28.40;7.87;;;;;;;;;;5028055;28;20384;-65
2023/12/21 01:22:19;;;;;;;24.67;5.50;;;;;;;;;;5029420;28;20480;-66
2023/12/21 01:24:46;;;;;;;30.17;7.93;;;;;;;;;;5029608;28;20651;-66
2023/12/21 01:27:12;;;;;;;26.90;6.73;;;;;;;;;;5029665;28;20506;-65
2023/12/21 01:29:38;;;;;;;22.13;5.67;;;;;;;;;;5028908;28;20049;-66
2023/12/21 01:32:04;;;;;;;27.37;5.93;;;;;;;;;;5029347;28;20128;-66
2023/12/21 01:34:30;;;;;;;29.50;7.10;;;;;;;;;;5029223;28;20053;-66
2023/12/21 01:36:56;;;;;;;17.10;5.20;;;;;;;;;;5027843;28;20072;-66
2023/12/21 01:39:23;;;;;;;28.60;6.53;;;;;;;;;;5029430;28;20171;-66
2023/12/21 01:41:50;;;;;;;22.70;6.00;;;;;;;;;;5029642;28;20053;-66
2023/12/21 01:44:16;;;;;;;30.07;5.93;;;;;;;;;;5029200;28;20102;-66
2023/12/21 01:46:42;;;;;;;29.93;6.80;;;;;;;;;;5029219;28;20049;-66
2023/12/21 01:49:08;;;;;;;27.00;6.77;;;;;;;;;;5029517;28;20041;-65
2023/12/21 01:51:34;;;;;;;22.07;5.33;;;;;;;;;;5029440;28;20049;-66
2023/12/21 01:54:03;;;;;;;20.17;5.03;;;;;;;;;;5029439;28;20165;-65
2023/12/21 01:56:29;;;;;;;25.90;6.10;;;;;;;;;;5029224;28;20052;-65
2023/12/21 01:58:55;;;;;;;25.87;5.60;;;;;;;;;;5028147;28;20072;-66
2023/12/21 02:01:21;;;;;;;19.20;4.77;;;;;;;;;;5028860;28;20080;-66
2023/12/21 02:03:47;;;;;;;19.33;5.40;;;;;;;;;;5029166;28;20096;-66
2023/12/21 02:06:14;;;;;;;24.50;6.40;;;;;;;;;;5027432;28;20555;-65
2023/12/21 02:08:40;;;;;;;21.93;6.00;;;;;;;;;;5028618;28;20119;-66
2023/12/21 02:11:10;;;;;;;31.57;6.13;;;;;;;;;;5029360;28;20057;-66
2023/12/21 02:13:36;;;;;;;22.70;6.47;;;;;;;;;;5028993;28;20488;-65
2023/12/21 02:16:05;;;;;;;22.70;5.53;;;;;;;;;;5029092;28;20050;-65
2023/12/21 02:18:31;;;;;;;22.30;4.67;;;;;;;;;;5029264;28;20457;-66
2023/12/21 02:20:58;;;;;;;21.30;4.70;;;;;;;;;;5029067;28;20403;-66
2023/12/21 02:23:26;;;;;;;25.63;5.47;;;;;;;;;;5028886;28;20077;-66
2023/12/21 02:25:52;;;;;;;27.97;5.17;;;;;;;;;;5028436;28;20041;-65
2023/12/21 02:28:18;;;;;;;23.17;4.67;;;;;;;;;;5028684;28;20048;-65
2023/12/21 02:30:46;;;;;;;27.63;6.67;;;;;;;;;;5028742;28;20110;-65
2023/12/21 02:33:12;;;;;;;25.30;4.90;;;;;;;;;;5028591;28;20045;-65
2023/12/21 02:35:38;;;;;;;29.53;5.67;;;;;;;;;;5028501;28;20042;-66
2023/12/21 02:38:04;;;;;;;25.67;5.90;;;;;;;;;;5027381;28;20496;-66
2023/12/21 02:40:30;;;;;;;25.53;6.17;;;;;;;;;;5026788;28;20420;-66
2023/12/21 02:42:57;;;;;;;21.50;5.13;;;;;;;;;;5028349;28;20523;-66
2023/12/21 02:45:23;;;;;;;31.47;6.50;;;;;;;;;;5028318;28;20503;-66
2023/12/21 02:47:49;;;;;;;25.40;7.17;;;;;;;;;;5027681;28;20049;-66
2023/12/21 02:50:15;;;;;;;27.90;6.20;;;;;;;;;;5028214;28;20045;-66
2023/12/21 02:52:41;;;;;;;31.13;7.87;;;;;;;;;;5028591;28;20042;-66
2023/12/21 02:55:07;;;;;;;31.43;7.27;;;;;;;;;;5028400;28;20052;-66
2023/12/21 02:57:33;;;;;;;28.13;7.40;;;;;;;;;;5027771;28;20045;-66
2023/12/21 02:59:59;;;;;;;30.80;7.23;;;;;;;;;;5027171;28;20048;-66
2023/12/21 03:02:25;;;;;;;26.27;7.97;;;;;;;;;;5028455;28;20049;-66
2023/12/21 03:04:51;;;;;;;32.97;8.83;;;;;;;;;;5028448;28;20042;-66
2023/12/21 03:07:17;;;;;;;28.80;7.50;;;;;;;;;;5027521;28;20042;-66
2023/12/21 03:09:43;;;;;;;29.67;8.83;;;;;;;;;;5026428;28;20049;-66
2023/12/21 03:12:09;;;;;;;33.77;9.70;;;;;;;;;;5026126;28;20065;-66
2023/12/21 03:14:35;;;;;;;36.60;9.20;;;;;;;;;;5028327;28;20037;-66
2023/12/21 03:17:01;;;;;;;29.73;8.90;;;;;;;;;;5028638;28;20139;-66
2023/12/21 03:19:27;;;;;;;33.97;9.90;;;;;;;;;;5027552;28;20478;-66
2023/12/21 03:21:53;;;;;;;35.60;11.07;;;;;;;;;;5027782;28;20504;-66
2023/12/21 03:24:19;;;;;;;29.70;8.67;;;;;;;;;;5028198;28;20045;-66
2023/12/21 03:26:46;;;;;;;48.03;12.97;;;;;;;;;;5027446;28;20049;-66
2023/12/21 03:29:12;;;;;;;35.57;10.77;;;;;;;;;;5026047;28;20060;-66
2023/12/21 03:31:38;;;;;;;27.30;10.03;;;;;;;;;;5027815;28;20046;-66
2023/12/21 03:34:04;;;;;;;37.43;11.97;;;;;;;;;;5028315;28;20038;-66
2023/12/21 03:36:31;;;;;;;28.30;10.20;;;;;;;;;;5027877;28;20052;-66
2023/12/21 03:38:59;;;;;;;41.87;11.30;;;;;;;;;;5028309;28;20052;-66
2023/12/21 03:41:25;;;;;;;28.13;10.37;;;;;;;;;;5027889;28;20518;-66
2023/12/21 03:43:51;;;;;;;29.97;10.33;;;;;;;;;;5027699;28;20108;-66
2023/12/21 03:46:17;;;;;;;33.47;11.27;;;;;;;;;;5030032;28;20091;-66
2023/12/21 03:48:43;;;;;;;28.63;11.20;;;;;;;;;;5031805;28;20073;-66
2023/12/21 03:51:09;;;;;;;42.80;11.40;;;;;;;;;;5031524;28;20056;-65
2023/12/21 03:53:35;;;;;;;37.50;11.00;;;;;;;;;;5031364;28;20053;-66
2023/12/21 03:56:01;;;;;;;36.87;12.23;;;;;;;;;;5031470;28;20079;-66
2023/12/21 03:58:27;;;;;;;29.33;11.00;;;;;;;;;;5030486;28;20041;-66
2023/12/21 04:00:53;;;;;;;30.73;10.00;;;;;;;;;;5030577;28;20049;-66
2023/12/21 04:03:20;;;;;;;24.87;9.70;;;;;;;;;;5031069;28;20514;-65
2023/12/21 04:05:46;;;;;;;32.83;10.47;;;;;;;;;;5031439;28;20080;-66
2023/12/21 04:08:12;;;;;;;32.50;10.37;;;;;;;;;;5031268;28;20041;-66
2023/12/21 04:10:38;;;;;;;29.30;9.83;;;;;;;;;;5030780;28;20046;-66
2023/12/21 04:13:04;;;;;;;28.30;8.70;;;;;;;;;;5031268;28;20053;-66
2023/12/21 04:15:30;;;;;;;28.07;9.50;;;;;;;;;;5030887;28;20110;-66
2023/12/21 04:17:56;;;;;;;36.10;9.40;;;;;;;;;;5031282;28;20099;-68
2023/12/21 04:20:22;;;;;;;25.93;9.20;;;;;;;;;;5030727;28;20064;-66
2023/12/21 04:22:48;;;;;;;38.90;11.93;;;;;;;;;;5029616;28;20049;-66
2023/12/21 04:25:14;;;;;;;27.57;9.53;;;;;;;;;;5030167;28;20045;-66
2023/12/21 04:27:41;;;;;;;29.23;9.30;;;;;;;;;;5030795;28;20047;-66
2023/12/21 04:30:07;;;;;;;27.53;7.57;;;;;;;;;;5031283;28;20053;-66
2023/12/21 04:32:33;;;;;;;24.87;9.03;;;;;;;;;;5030171;28;20049;-66
2023/12/21 04:34:59;;;;;;;32.73;8.73;;;;;;;;;;5031070;28;20044;-66
2023/12/21 04:37:25;;;;;;;29.27;7.97;;;;;;;;;;5030455;28;20048;-66
2023/12/21 04:39:51;;;;;;;24.63;8.30;;;;;;;;;;5030571;28;20773;-66
2023/12/21 04:42:17;;;;;;;28.67;8.00;;;;;;;;;;5030736;28;20103;-66
2023/12/21 04:44:44;;;;;;;28.30;7.80;;;;;;;;;;5030380;28;20049;-66
2023/12/21 04:47:10;;;;;;;33.17;9.83;;;;;;;;;;5030013;28;20049;-66
2023/12/21 04:49:36;;;;;;;25.87;7.93;;;;;;;;;;5029295;28;20132;-66
2023/12/21 04:52:03;;;;;;;26.77;9.27;;;;;;;;;;5030421;28;20056;-66
2023/12/21 04:54:30;;;;;;;27.33;9.87;;;;;;;;;;5029437;28;20132;-66
2023/12/21 04:56:56;;;;;;;27.73;9.63;;;;;;;;;;5025634;28;20049;-65
2023/12/21 04:59:22;;;;;;;25.70;11.03;;;;;;;;;;5030362;28;20064;-66
2023/12/21 05:01:49;;;;;;;22.57;8.10;;;;;;;;;;5029710;28;20045;-66
2023/12/21 05:04:15;;;;;;;27.53;9.73;;;;;;;;;;5030034;28;20049;-66
2023/12/21 05:06:41;;;;;;;25.57;9.60;;;;;;;;;;5029408;28;20041;-66
2023/12/21 05:09:07;;;;;;;29.67;8.73;;;;;;;;;;5030420;28;20049;-66
2023/12/21 05:11:33;;;;;;;27.77;8.40;;;;;;;;;;5029940;28;20043;-66
2023/12/21 05:13:59;;;;;;;26.40;8.63;;;;;;;;;;5030157;28;20100;-66
2023/12/21 05:16:25;;;;;;;24.13;6.87;;;;;;;;;;5029803;28;20037;-66
2023/12/21 05:18:51;;;;;;;28.23;7.13;;;;;;;;;;5029801;28;20045;-66
2023/12/21 05:21:17;;;;;;;24.77;6.87;;;;;;;;;;5029851;28;20053;-66
2023/12/21 05:23:43;;;;;;;21.20;6.27;;;;;;;;;;5029819;28;20049;-66
2023/12/21 05:26:11;;;;;;;18.97;6.10;;;;;;;;;;5029354;28;20041;-66
2023/12/21 05:28:38;;;;;;;22.03;6.57;;;;;;;;;;5029738;28;20045;-66
2023/12/21 05:31:04;;;;;;;24.63;5.90;;;;;;;;;;5028501;28;20515;-66
2023/12/21 05:33:30;;;;;;;21.83;5.27;;;;;;;;;;5029445;28;20042;-66
2023/12/21 05:35:56;;;;;;;23.03;4.50;;;;;;;;;;5029692;28;20037;-66
2023/12/21 05:38:22;;;;;;;27.53;5.47;;;;;;;;;;5029040;28;20153;-66
2023/12/21 05:40:48;;;;;;;26.30;5.53;;;;;;;;;;5029657;28;20041;-66
2023/12/21 05:43:14;;;;;;;13.73;4.87;;;;;;;;;;5028912;28;20511;-66
2023/12/21 05:45:40;;;;;;;20.53;5.13;;;;;;;;;;5029432;28;20056;-66
2023/12/21 05:48:06;;;;;;;18.20;4.87;;;;;;;;;;5028513;28;20140;-66
2023/12/21 05:50:32;;;;;;;26.27;4.93;;;;;;;;;;5026999;28;20049;-66
2023/12/21 05:52:58;;;;;;;17.60;4.03;;;;;;;;;;5029480;28;20511;-66
2023/12/21 05:55:24;;;;;;;28.83;4.07;;;;;;;;;;5028278;28;20105;-66
2023/12/21 05:57:50;;;;;;;23.43;4.53;;;;;;;;;;5028319;28;20099;-66
2023/12/21 06:00:16;;;;;;;23.53;4.80;;;;;;;;;;5027956;28;20052;-66
2023/12/21 06:02:42;;;;;;;14.93;3.93;;;;;;;;;;5029393;28;20594;-66
2023/12/21 06:05:09;;;;;;;20.77;4.87;;;;;;;;;;5028876;28;20045;-66
2023/12/21 06:07:35;;;;;;;15.53;5.23;;;;;;;;;;5029171;28;20049;-66
2023/12/21 06:10:01;;;;;;;21.67;4.87;;;;;;;;;;5029087;28;20110;-66
2023/12/21 06:12:27;;;;;;;19.00;4.30;;;;;;;;;;5029262;28;20045;-66
2023/12/21 06:14:53;;;;;;;22.17;4.93;;;;;;;;;;5028781;28;20419;-66
2023/12/21 06:17:19;;;;;;;13.77;4.00;;;;;;;;;;5028839;28;20045;-66
2023/12/21 06:19:45;;;;;;;18.57;3.87;;;;;;;;;;5027458;28;20423;-66
2023/12/21 06:22:11;;;;;;;21.73;5.57;;;;;;;;;;5028982;28;20041;-66
2023/12/21 06:24:37;;;;;;;18.47;4.47;;;;;;;;;;5028653;28;20462;-66
2023/12/21 06:27:03;;;;;;;17.27;4.67;;;;;;;;;;5027362;28;20140;-66
2023/12/21 06:29:29;;;;;;;24.63;4.90;;;;;;;;;;5026399;28;20037;-66
2023/12/21 06:31:55;;;;;;;19.30;5.30;;;;;;;;;;5029228;28;20061;-66
2023/12/21 06:34:21;;;;;;;22.73;4.80;;;;;;;;;;5028377;28;20050;-66
2023/12/21 06:36:47;;;;;;;16.67;5.10;;;;;;;;;;5028495;28;20598;-66
2023/12/21 06:39:13;;;;;;;20.87;5.17;;;;;;;;;;5028787;28;20108;-66
2023/12/21 06:41:39;;;;;;;18.37;5.23;;;;;;;;;;5028644;28;20432;-66
2023/12/21 06:44:05;;;;;;;20.67;5.80;;;;;;;;;;5027187;28;20077;-66
2023/12/21 06:46:31;;;;;;;21.47;5.90;;;;;;;;;;5027171;28;20061;-66
2023/12/21 06:48:57;;;;;;;26.33;6.23;;;;;;;;;;5028829;28;20440;-66
2023/12/21 06:51:23;;;;;;;49.93;9.03;;;;;;;;;;5028134;28;20128;-66
2023/12/21 06:53:49;;;;;;;23.80;4.57;;;;;;;;;;5028561;28;20049;-66
2023/12/21 06:56:17;;;;;;;12.13;4.27;;;;;;;;;;5028392;28;20073;-66
2023/12/21 06:58:43;;;;;;;17.00;4.23;;;;;;;;;;5027089;28;20141;-66
2023/12/21 07:01:10;;;;;;;21.80;3.80;;;;;;;;;;5027288;28;20052;-66
2023/12/21 07:03:36;;;;;;;18.27;5.63;;;;;;;;;;5027186;28;20140;-66
2023/12/21 07:06:02;;;;;;;18.73;5.30;;;;;;;;;;5028716;28;20173;-66
2023/12/21 07:08:28;;;;;;;20.37;4.83;;;;;;;;;;5028413;28;20046;-66
2023/12/21 07:10:54;;;;;;;15.43;5.00;;;;;;;;;;5028740;28;20048;-66
2023/12/21 07:13:20;;;;;;;18.27;5.97;;;;;;;;;;5028583;28;20053;-67
2023/12/21 07:15:46;;;;;;;14.40;5.83;;;;;;;;;;5027946;28;20160;-66
2023/12/21 07:18:12;;;;;;;20.30;5.47;;;;;;;;;;5028935;28;20111;-67
2023/12/21 07:20:38;;;;;;;21.93;6.60;;;;;;;;;;5029506;28;20049;-66
2023/12/21 07:23:04;;;;;;;16.60;5.83;;;;;;;;;;5031367;28;20124;-66
2023/12/21 07:25:31;;;;;;;15.80;5.43;;;;;;;;;;5012479;28;20812;-66
2023/12/21 07:27:57;;;;;;;13.73;5.03;;;;;;;;;;5012629;28;20048;-66
2023/12/21 07:30:23;;;;;;;20.13;6.00;;;;;;;;;;5031944;28;20136;-66
2023/12/21 07:32:49;;;;;;;17.17;5.23;;;;;;;;;;5029939;28;20375;-66
2023/12/21 07:35:15;;;;;;;23.73;5.73;;;;;;;;;;5030682;28;20495;-67
2023/12/21 07:37:42;;;;;;;17.90;6.27;;;;;;;;;;5030663;28;20092;-67
2023/12/21 07:40:08;;;;;;;14.97;5.57;;;;;;;;;;5032230;28;20045;-66
2023/12/21 07:42:34;;;;;;;22.03;6.47;;;;;;;;;;5028796;28;20143;-67
2023/12/21 07:45:00;;;;;;;17.17;6.00;;;;;;;;;;5032018;28;20459;-66
2023/12/21 07:47:26;;;;;;;16.90;5.43;;;;;;;;;;5030140;28;20046;-66
2023/12/21 07:49:52;;;;;;;14.23;5.40;;;;;;;;;;5030100;28;20076;-67
2023/12/21 07:52:18;;;;;;;24.60;6.27;;;;;;;;;;5031593;28;20434;-67
2023/12/21 07:54:44;;;;;;;19.57;6.27;;;;;;;;;;5031291;28;20059;-67
2023/12/21 07:57:10;;;;;;;21.97;5.97;;;;;;;;;;5031537;28;20115;-67
2023/12/21 07:59:37;;;;;;;14.33;5.17;;;;;;;;;;5031069;28;20735;-67
2023/12/21 08:02:03;;;;;;;13.30;5.10;;;;;;;;;;5031642;28;20479;-67
2023/12/21 08:04:28;;;;;;;14.47;5.13;;;;;;;;;;5031796;28;20045;-66
2023/12/21 08:06:54;;;;;;;46.10;7.20;;;;;;;;;;5031195;28;20049;-66
2023/12/21 08:09:20;;;;;;;19.13;3.87;;;;;;;;;;5028605;28;20041;-67
2023/12/21 08:11:46;;;;;;;25.30;6.07;;;;;;;;;;5029895;28;20464;-67
2023/12/21 08:14:13;;;;;;;8.20;4.40;;;;;;;;;;5031543;28;20503;-67
2023/12/21 08:16:39;;;;;;;12.77;4.77;;;;;;;;;;5030145;28;20058;-66
2023/12/21 08:19:06;;;;;;;16.97;5.33;;;;;;;;;;5030693;28;20057;-66
2023/12/21 08:21:32;;;;;;;11.80;4.93;;;;;;;;;;5031006;28;20133;-66
2023/12/21 08:23:58;;;;;;;17.13;5.57;;;;;;;;;;5030044;28;20084;-67
2023/12/21 08:26:26;;;;;;;9.00;4.33;;;;;;;;;;5030834;28;20049;-67
2023/12/21 08:28:52;;;;;;;13.20;4.20;;;;;;;;;;5030414;28;20496;-67
2023/12/21 08:31:28;;;;;;;15.93;5.70;;;;;;;;;;5030684;28;20042;-67
2023/12/21 08:33:54;;;;;;;11.87;3.87;;;;;;;;;;5022961;28;20081;-67
2023/12/21 08:36:20;;;;;;;15.73;4.13;;;;;;;;;;5019704;28;20127;-67
2023/12/21 08:38:46;;;;;;;11.33;4.40;;;;;;;;;;5029996;28;20132;-66
2023/12/21 08:41:12;;;;;;;12.83;4.10;;;;;;;;;;5029030;28;20100;-66
2023/12/21 08:43:38;;;;;;;15.53;4.90;;;;;;;;;;5029430;28;20057;-66
2023/12/21 08:46:04;;;;;;;17.43;4.57;;;;;;;;;;5030523;28;20045;-67
2023/12/21 08:48:30;;;;;;;20.83;4.67;;;;;;;;;;5028547;28;20042;-66
2023/12/21 08:50:56;;;;;;;19.07;4.60;;;;;;;;;;5029520;28;20049;-66
2023/12/21 08:53:22;;;;;;;21.90;4.93;;;;;;;;;;5029129;28;20570;-67
2023/12/21 08:55:48;;;;;;;16.07;4.43;;;;;;;;;;5029083;28;20037;-67
2023/12/21 08:58:14;;;;;;;16.50;5.13;;;;;;;;;;5029130;28;20724;-67
2023/12/21 09:00:40;;;;;;;21.40;4.87;;;;;;;;;;5029457;28;20147;-66
2023/12/21 09:03:06;;;;;;;14.77;5.50;;;;;;;;;;5029645;28;20415;-66
2023/12/21 09:05:33;;;;;;;19.33;4.33;;;;;;;;;;5029551;28;20045;-67
2023/12/21 09:07:59;;;;;;;18.57;3.90;;;;;;;;;;5029676;28;20037;-67
2023/12/21 09:10:25;;;;;;;23.20;4.77;;;;;;;;;;5029251;28;20361;-67
2023/12/21 09:12:51;;;;;;;20.80;4.33;;;;;;;;;;5030129;28;20041;-66
2023/12/21 09:15:17;;;;;;;21.77;4.27;;;;;;;;;;5029999;28;20423;-67
2023/12/21 09:17:43;;;;;;;19.97;6.30;;;;;;;;;;5035406;28;20039;-67
2023/12/21 09:20:10;;;;;;;19.77;4.10;;;;;;;;;;5020240;28;20038;-67
2023/12/21 09:22:37;;;;;;;20.67;4.37;;;;;;;;;;5023274;28;20044;-67
2023/12/21 09:25:03;;;;;;;22.67;4.47;;;;;;;;;;5028143;28;20056;-67
2023/12/21 09:27:31;;;;;;;17.00;4.50;;;;;;;;;;5029634;28;20045;-66
2023/12/21 09:29:57;;;;;;;11.90;3.17;;;;;;;;;;5029631;28;20187;-67
2023/12/21 09:32:23;;;;;;;17.73;3.57;;;;;;;;;;5029216;28;20045;-66
2023/12/21 09:34:49;;;;;;;14.63;3.20;;;;;;;;;;5031968;28;20479;-66
2023/12/21 09:37:16;;;;;;;16.40;3.63;;;;;;;;;;5028067;28;20049;-66
2023/12/21 09:39:42;;;;;;;9.90;3.00;;;;;;;;;;5032329;28;20048;-66
2023/12/21 09:42:10;;;;;;;12.30;3.10;;;;;;;;;;5028926;28;20355;-66
2023/12/21 09:44:37;;;;;;;15.83;3.00;;;;;;;;;;5027133;28;20049;-66
2023/12/21 09:47:07;;;;;;;17.60;4.33;;;;;;;;;;5028926;28;20128;-66
2023/12/21 09:49:36;;;;;;;15.60;3.37;;;;;;;;;;5028830;28;20370;-66
2023/12/21 09:52:04;;;;;;;21.97;4.60;;;;;;;;;;5029817;28;20048;-66
2023/12/21 09:54:30;;;;;;;17.70;3.40;;;;;;;;;;5029899;28;20129;-67
2023/12/21 09:56:57;;;;;;;18.83;3.63;;;;;;;;;;5028678;28;20045;-66
2023/12/21 09:59:27;;;;;;;23.00;4.13;;;;;;;;;;5029361;28;20041;-67
2023/12/21 10:01:53;;;;;;;26.67;3.83;;;;;;;;;;5029026;28;20520;-66
2023/12/21 10:04:19;;;;;;;16.00;3.80;;;;;;;;;;5028464;28;20049;-66
2023/12/21 10:06:46;;;;;;;20.80;4.17;;;;;;;;;;5028512;28;20053;-66
2023/12/21 10:09:15;;;;;;;15.33;3.30;;;;;;;;;;5027321;28;20073;-66
2023/12/21 10:11:41;;;;;;;17.90;4.27;;;;;;;;;;5027366;28;20057;-66
2023/12/21 10:14:19;;;;;;;18.13;2.97;;;;;;;;;;5028564;28;20408;-67
2023/12/21 10:16:45;;;;;;;16.50;2.70;;;;;;;;;;5028972;28;20064;-66
2023/12/21 10:19:11;;;;;;;12.93;3.10;;;;;;;;;;5028623;28;20134;-66
2023/12/21 10:21:40;;;;;;;15.17;3.87;;;;;;;;;;5028564;28;20045;-66
2023/12/21 10:24:06;;;;;;;19.60;3.87;;;;;;;;;;5028780;28;20405;-66
2023/12/21 10:26:32;;;;;;;14.37;4.27;;;;;;;;;;5026808;28;20052;-66
2023/12/21 10:28:58;;;;;;;16.37;2.80;;;;;;;;;;5028533;28;20045;-66
2023/12/21 10:31:26;;;;;;;14.33;2.83;;;;;;;;;;5028422;28;20123;-66
2023/12/21 10:33:52;;;;;;;14.07;3.00;;;;;;;;;;5028191;28;20048;-65
2023/12/21 10:36:18;;;;;;;15.10;2.90;;;;;;;;;;5028754;28;20049;-65
2023/12/21 10:38:45;;;;;;;9.83;2.27;;;;;;;;;;5027840;28;20060;-65
2023/12/21 10:41:11;;;;;;;16.83;3.43;;;;;;;;;;5028404;28;20056;-66
2023/12/21 10:43:37;;;;;;;18.77;3.13;;;;;;;;;;5028082;28;20428;-66
2023/12/21 10:46:03;;;;;;;20.37;3.50;;;;;;;;;;5027642;28;20049;-66
2023/12/21 10:48:33;;;;;;;14.53;2.77;;;;;;;;;;5028198;28;20060;-66
2023/12/21 10:50:59;;;;;;;15.63;2.80;;;;;;;;;;5028682;28;20133;-66
2023/12/21 10:53:25;;;;;;;15.90;2.80;;;;;;;;;;5026674;28;20458;-66
2023/12/21 10:55:54;;;;;;;11.27;2.57;;;;;;;;;;5030419;28;20041;-66
2023/12/21 10:58:21;;;;;;;16.43;2.60;;;;;;;;;;5032265;28;20061;-66
2023/12/21 11:00:47;;;;;;;11.37;2.63;;;;;;;;;;5032214;28;20510;-65
2023/12/21 11:03:16;;;;;;;17.27;3.17;;;;;;;;;;5032632;28;20056;-66
2023/12/21 11:05:43;;;;;;;20.97;2.90;;;;;;;;;;5032320;28;20177;-65
2023/12/21 11:08:10;;;;;;;15.27;2.80;;;;;;;;;;5031768;28;20526;-65
2023/12/21 11:10:37;;;;;;;13.73;3.33;;;;;;;;;;5032202;28;20050;-65
2023/12/21 11:13:03;;;;;;;11.67;2.20;;;;;;;;;;5032378;28;20038;-66
2023/12/21 11:15:33;;;;;;;13.03;2.17;;;;;;;;;;5032002;28;20052;-65
2023/12/21 11:18:01;;;;;;;10.70;2.60;;;;;;;;;;5031606;28;20053;-66
2023/12/21 11:20:34;;;;;;;10.83;2.23;;;;;;;;;;5031651;28;20092;-65
2023/12/21 11:23:04;;;;;;;13.75;2.78;;;;;;;;;;5032125;28;20053;-66
2023/12/21 11:25:30;;;;;;;18.43;4.50;;;;;;;;;;5031531;28;20064;-65
2023/12/21 11:27:56;;;;;;;21.37;3.73;;;;;;;;;;5031775;28;20041;-65
2023/12/21 11:30:27;;;;;;;25.40;4.10;;;;;;;;;;5031423;28;20507;-66
2023/12/21 11:33:03;;;;;;;24.03;4.73;;;;;;;;;;5031419;28;20045;-65
2023/12/21 11:35:31;;;;;;;22.07;3.20;;;;;;;;;;5021379;28;20041;-66
2023/12/21 11:37:59;;;;;;;20.93;3.67;;;;;;;;;;5030430;28;20042;-66
2023/12/21 11:40:27;;;;;;;28.93;4.23;;;;;;;;;;5031153;28;20104;-65
2023/12/21 11:42:59;;;;;;;20.73;3.80;;;;;;;;;;5029783;28;20069;-65
2023/12/21 11:45:28;;;;;;;22.23;4.07;;;;;;;;;;5029732;28;20711;-65
2023/12/21 11:47:55;;;;;;;26.73;5.07;;;;;;;;;;5029810;28;20037;-66
2023/12/21 11:50:23;;;;;;;21.37;3.80;;;;;;;;;;5031132;28;20049;-65
2023/12/21 11:52:49;;;;;;;24.10;5.37;;;;;;;;;;5030364;28;20144;-65
2023/12/21 11:55:27;;;;;;;26.37;4.83;;;;;;;;;;5029701;28;20061;-65
2023/12/21 11:58:08;;;;;;;22.57;3.73;;;;;;;;;;5030573;28;20038;-65
2023/12/21 12:00:43;;;;;;;31.20;6.03;;;;;;;;;;5029002;28;20056;-65
2023/12/21 12:03:09;;;;;;;21.47;4.70;;;;;;;;;;5030752;28;20603;-66
2023/12/21 12:05:35;;;;;;;26.57;4.07;;;;;;;;;;5029728;28;20045;-65
2023/12/21 12:08:02;;;;;;;22.87;4.37;;;;;;;;;;5029695;28;20034;-65
2023/12/21 12:10:29;;;;;;;15.10;3.63;;;;;;;;;;5028864;28;20054;-65
2023/12/21 12:12:55;;;;;;;25.43;3.20;;;;;;;;;;5030638;28;20415;-65
2023/12/21 12:15:21;;;;;;;19.33;3.50;;;;;;;;;;5030684;28;20137;-65
2023/12/21 12:17:47;;;;;;;24.60;3.90;;;;;;;;;;5030885;28;20202;-65
2023/12/21 12:20:13;;;;;;;17.63;3.60;;;;;;;;;;5030107;28;20592;-65
2023/12/21 12:22:39;;;;;;;19.70;2.57;;;;;;;;;;5030200;28;20504;-65
2023/12/21 12:25:05;;;;;;;26.27;3.70;;;;;;;;;;5044901;28;20049;-65
2023/12/21 12:27:31;;;;;;;17.73;4.07;;;;;;;;;;5030119;28;20141;-65
2023/12/21 12:29:58;;;;;;;19.50;3.13;;;;;;;;;;5029332;28;20524;-65
2023/12/21 12:32:24;;;;;;;27.13;4.80;;;;;;;;;;5029828;28;20045;-65
2023/12/21 12:34:51;;;;;;;35.37;4.13;;;;;;;;;;5029387;28;20096;-65
2023/12/21 12:37:18;;;;;;;26.30;4.23;;;;;;;;;;5029855;28;20042;-65
2023/12/21 12:39:48;;;;;;;26.83;4.17;;;;;;;;;;5030249;28;20601;-65
2023/12/21 12:42:15;;;;;;;28.53;4.37;;;;;;;;;;5028742;28;20092;-65
2023/12/21 12:44:41;;;;;;;19.60;4.20;;;;;;;;;;5030765;28;20053;-65
2023/12/21 12:47:07;;;;;;;32.70;4.40;;;;;;;;;;5030154;28;20583;-65
2023/12/21 12:49:36;;;;;;;30.20;4.73;;;;;;;;;;5029050;28;20041;-65
2023/12/21 12:52:04;;;;;;;31.97;5.03;;;;;;;;;;5030490;28;20076;-65
2023/12/21 12:54:31;;;;;;;27.33;4.33;;;;;;;;;;5030316;28;20049;-65
2023/12/21 12:57:00;;;;;;;27.37;3.77;;;;;;;;;;5030668;28;20168;-65
2023/12/21 12:59:26;;;;;;;24.17;3.73;;;;;;;;;;5029897;28;20091;-65
2023/12/21 13:01:52;;;;;;;27.27;5.37;;;;;;;;;;5029544;28;20056;-65
2023/12/21 13:04:18;;;;;;;37.73;5.50;;;;;;;;;;5030496;28;20060;-65
2023/12/21 13:06:49;;;;;;;31.53;5.13;;;;;;;;;;5029740;28;20050;-65
2023/12/21 13:09:16;;;;;;;23.63;5.03;;;;;;;;;;5030390;28;20049;-65
2023/12/21 13:11:42;;;;;;;24.67;3.57;;;;;;;;;;5030002;28;20049;-65
2023/12/21 13:14:10;;;;;;;26.67;5.37;;;;;;;;;;5029794;28;20423;-65
2023/12/21 13:16:36;;;;;;;31.47;4.80;;;;;;;;;;5029780;28;20057;-65
2023/12/21 13:19:04;;;;;;;34.47;5.63;;;;;;;;;;5029079;28;20085;-65
2023/12/21 13:21:31;;;;;;;19.67;3.97;;;;;;;;;;5029693;28;20108;-65
2023/12/21 13:23:57;;;;;;;23.63;3.97;;;;;;;;;;5030053;28;20053;-65
2023/12/21 13:26:23;;;;;;;22.43;3.93;;;;;;;;;;5029532;28;20415;-64
2023/12/21 13:28:52;;;;;;;22.93;3.93;;;;;;;;;;5028941;28;20060;-65
2023/12/21 13:31:18;;;;;;;27.23;4.37;;;;;;;;;;5029507;28;20115;-65
2023/12/21 13:33:44;;;;;;;29.23;6.00;;;;;;;;;;5029276;28;20447;-65
2023/12/21 13:36:10;;;;;;;27.97;5.57;;;;;;;;;;5029438;28;20045;-65
2023/12/21 13:38:37;;;;;;;32.93;6.67;;;;;;;;;;5028891;28;20685;-64
2023/12/21 13:41:03;;;;;;;24.03;5.23;;;;;;;;;;5029088;28;20136;-65
2023/12/21 13:43:29;;;;;;;19.97;5.60;;;;;;;;;;5029279;28;20496;-65
2023/12/21 13:45:55;;;;;;;21.27;4.33;;;;;;;;;;5029792;28;20330;-64
2023/12/21 13:48:21;;;;;;;27.87;5.77;;;;;;;;;;5028817;28;20095;-65
2023/12/21 13:50:48;;;;;;;26.70;5.30;;;;;;;;;;5044326;28;20140;-64
2023/12/21 13:53:14;;;;;;;21.40;5.07;;;;;;;;;;5029234;28;20041;-64
2023/12/21 13:55:40;;;;;;;25.63;4.77;;;;;;;;;;5028747;28;20076;-64
2023/12/21 13:58:06;;;;;;;19.60;4.33;;;;;;;;;;5029336;28;20095;-65
2023/12/21 14:00:32;;;;;;;25.00;4.87;;;;;;;;;;5029325;28;20435;-65
2023/12/21 14:02:58;;;;;;;26.30;4.47;;;;;;;;;;5028698;28;20092;-64
2023/12/21 14:05:24;;;;;;;20.93;5.23;;;;;;;;;;5028844;28;20049;-65
2023/12/21 14:07:51;;;;;;;28.13;5.47;;;;;;;;;;5028904;28;20617;-64
2023/12/21 14:10:17;;;;;;;27.80;5.23;;;;;;;;;;5028921;28;20060;-65
2023/12/21 14:12:44;;;;;;;25.00;4.97;;;;;;;;;;5028553;28;20049;-64
2023/12/21 14:15:10;;;;;;;34.73;5.03;;;;;;;;;;5029049;28;20048;-64
2023/12/21 14:17:36;;;;;;;26.57;5.87;;;;;;;;;;5029045;28;20375;-64
2023/12/21 14:20:02;;;;;;;20.03;5.13;;;;;;;;;;5028600;28;20037;-64
2023/12/21 14:22:28;;;;;;;31.23;5.30;;;;;;;;;;5028490;28;20037;-65
2023/12/21 14:24:54;;;;;;;28.83;5.20;;;;;;;;;;5028619;28;20530;-65